Time;durP1;ratioP1;P1;durP2;ratioP2;P2;SDS_P1;SDS_P2;PMS_P1;PMS_P2;Temp;Humidity;BMP_temperature;BMP_pressure;BME280_temperature;BME280_humidity;BME280_pressure;Samples;Min_cycle;Max_cycle;Signal;HPM_P1;HPM_P2
2020/12/10 00:00:54;;;;;;;9.60;5.00;;;;;;;-1.28;89.84;96529.22;5034238;28;20025;-78
2020/12/10 00:03:20;;;;;;;7.82;4.30;;;;;;;-1.32;90.04;96519.38;5031682;28;20183;-77
2020/12/10 00:05:46;;;;;;;8.65;4.72;;;;;;;-1.33;90.60;96511.88;5017818;28;20041;-78
2020/12/10 00:08:12;;;;;;;7.78;4.55;;;;;;;-1.22;90.29;96513.13;5047883;28;20037;-78
2020/12/10 00:10:37;;;;;;;9.90;4.47;;;;;;;-1.24;90.68;96517.66;5031139;28;20038;-77
2020/12/10 00:13:03;;;;;;;8.80;4.10;;;;;;;-1.22;90.66;96520.78;5030901;28;20036;-78
2020/12/10 00:15:30;;;;;;;7.85;5.05;;;;;;;-1.28;90.39;96519.00;5015646;28;20507;-78
2020/12/10 00:17:56;;;;;;;9.02;4.70;;;;;;;-1.30;91.06;96511.53;5015434;28;20095;-78
2020/12/10 00:20:21;;;;;;;7.57;4.50;;;;;;;-1.28;90.67;96503.69;5031204;28;20038;-78
2020/12/10 00:22:47;;;;;;;9.82;5.00;;;;;;;-1.28;90.69;96498.56;5011409;28;20034;-78
2020/12/10 00:25:13;;;;;;;6.82;3.72;;;;;;;-1.22;90.95;96497.81;5013836;28;20038;-78
2020/12/10 00:27:39;;;;;;;8.85;4.47;;;;;;;-1.24;90.83;96492.09;5011659;28;20028;-78
2020/12/10 00:30:11;;;;;;;9.20;4.85;;;;;;;-1.19;90.30;96487.22;5011242;28;20444;-77
2020/12/10 00:32:37;;;;;;;9.95;5.43;;;;;;;-1.24;90.59;96482.66;5011580;28;20117;-77
2020/12/10 00:35:05;;;;;;;8.73;5.03;;;;;;;-1.24;90.26;96479.34;5012616;28;20025;-78
2020/12/10 00:37:33;;;;;;;8.43;4.63;;;;;;;-1.19;90.42;96487.22;5031813;28;20041;-78
2020/12/10 00:39:59;;;;;;;8.68;4.45;;;;;;;-1.15;90.14;96471.34;5027011;28;20022;-78
2020/12/10 00:42:25;;;;;;;10.18;5.38;;;;;;;-1.22;89.98;96472.28;5011223;28;20030;-77
2020/12/10 00:44:51;;;;;;;10.13;4.97;;;;;;;-1.17;89.98;96467.38;5013473;28;20065;-77
2020/12/10 00:47:18;;;;;;;10.65;5.80;;;;;;;-1.20;89.83;96465.22;4997139;28;20515;-78
2020/12/10 00:49:44;;;;;;;10.68;6.15;;;;;;;-1.24;90.34;96448.69;5030144;28;20424;-77
2020/12/10 00:52:14;;;;;;;11.68;5.95;;;;;;;-1.24;90.29;96451.25;5029676;28;20483;-78
2020/12/10 00:54:40;;;;;;;9.93;5.85;;;;;;;-1.21;90.26;96455.97;5029718;28;20101;-78
2020/12/10 00:57:10;;;;;;;10.93;5.63;;;;;;;-1.18;89.89;96453.06;5013436;28;20511;-77
2020/12/10 00:59:42;;;;;;;13.07;6.88;;;;;;;-1.19;89.71;96454.03;5035927;28;20029;-78
2020/12/10 01:02:08;;;;;;;13.88;6.60;;;;;;;-1.23;90.60;96440.06;5035304;28;20033;-78
2020/12/10 01:04:34;;;;;;;12.75;6.60;;;;;;;-1.21;90.78;96448.31;5000184;28;20456;-77
2020/12/10 01:07:00;;;;;;;12.52;5.88;;;;;;;-1.24;91.03;96446.13;5017560;28;20068;-78
2020/12/10 01:09:27;;;;;;;12.38;6.05;;;;;;;-1.23;90.83;96445.94;5032709;28;20094;-78
2020/12/10 01:11:52;;;;;;;10.68;5.68;;;;;;;-1.25;91.20;96442.00;5048918;28;20072;-78
2020/12/10 01:14:19;;;;;;;12.57;6.25;;;;;;;-1.25;90.81;96447.91;5033794;28;20053;-77
2020/12/10 01:16:45;;;;;;;11.48;6.40;;;;;;;-1.23;90.99;96442.63;5034484;28;20051;-78
2020/12/10 01:19:12;;;;;;;15.65;6.72;;;;;;;-1.31;90.47;96443.53;5035307;28;20021;-78
2020/12/10 01:21:38;;;;;;;13.25;6.70;;;;;;;-1.31;91.42;96438.44;5033926;28;20028;-77
2020/12/10 01:24:04;;;;;;;12.27;6.82;;;;;;;-1.33;91.27;96442.94;5034064;28;20051;-78
2020/12/10 01:26:34;;;;;;;11.90;6.00;;;;;;;-1.32;91.13;96449.59;5002347;28;20024;-78
2020/12/10 01:29:00;;;;;;;13.25;6.20;;;;;;;-1.31;91.12;96448.66;5033818;28;20029;-78
2020/12/10 01:31:27;;;;;;;14.50;6.78;;;;;;;-1.28;90.74;96438.06;5017887;28;20414;-78
2020/12/10 01:33:53;;;;;;;14.55;6.95;;;;;;;-1.28;91.05;96437.28;5018076;28;20033;-78
2020/12/10 01:36:26;;;;;;;14.55;6.55;;;;;;;-1.27;91.04;96438.84;5018356;28;20033;-77
2020/12/10 01:38:52;;;;;;;15.00;7.13;;;;;;;-1.29;91.58;96433.91;5034253;28;20083;-77
2020/12/10 01:41:19;;;;;;;15.57;8.05;;;;;;;-1.34;91.03;96428.59;5017505;28;20029;-78
2020/12/10 01:43:45;;;;;;;12.75;6.15;;;;;;;-1.30;91.26;96431.56;5017361;28;20051;-78
2020/12/10 01:46:11;;;;;;;13.13;7.30;;;;;;;-1.32;91.57;96435.09;5034176;28;20104;-78
2020/12/10 01:48:37;;;;;;;14.15;6.68;;;;;;;-1.34;91.75;96426.84;5034072;28;20033;-78
2020/12/10 01:51:04;;;;;;;11.18;5.88;;;;;;;-1.36;91.61;96425.44;5034039;28;20033;-78
2020/12/10 01:53:30;;;;;;;15.23;7.00;;;;;;;-1.34;91.83;96421.72;5033420;28;20056;-78
2020/12/10 01:55:57;;;;;;;14.70;7.50;;;;;;;-1.36;91.44;96416.00;5034379;28;20043;-77
2020/12/10 01:58:23;;;;;;;16.38;7.70;;;;;;;-1.35;91.76;96409.16;5032953;28;20122;-78
2020/12/10 02:00:51;;;;;;;15.63;8.27;;;;;;;-1.36;91.65;96410.88;5031592;28;20361;-78
2020/12/10 02:03:17;;;;;;;14.70;7.13;;;;;;;-1.39;91.37;96416.41;5014853;28;20132;-78
2020/12/10 02:05:45;;;;;;;13.68;6.90;;;;;;;-1.40;91.51;96404.59;5033396;28;20033;-78
2020/12/10 02:08:11;;;;;;;12.60;6.97;;;;;;;-1.37;91.35;96404.22;5034080;28;20548;-78
2020/12/10 02:10:37;;;;;;;17.00;7.75;;;;;;;-1.33;91.78;96417.41;5051319;28;20578;-77
2020/12/10 02:13:03;;;;;;;12.40;6.68;;;;;;;-1.39;91.33;96410.47;5017074;28;20078;-78
2020/12/10 02:15:33;;;;;;;13.88;6.55;;;;;;;-1.38;91.06;96400.09;5051584;28;20048;-77
2020/12/10 02:18:00;;;;;;;16.30;7.45;;;;;;;-1.41;90.72;96407.34;5033681;28;20396;-78
2020/12/10 02:20:29;;;;;;;17.88;7.45;;;;;;;-1.44;90.84;96405.97;5035052;28;20036;-78
2020/12/10 02:23:13;;;;;;;17.30;7.93;;;;;;;-1.46;91.16;96405.34;5016850;28;20033;-78
2020/12/10 02:25:39;;;;;;;14.60;7.25;;;;;;;-1.48;92.06;96393.75;5017244;28;20037;-78
2020/12/10 02:28:06;;;;;;;15.85;8.02;;;;;;;-1.44;91.57;96400.03;5001149;28;20098;-78
2020/12/10 02:30:32;;;;;;;12.82;6.57;;;;;;;-1.42;91.86;96395.53;5033553;28;20037;-77
2020/12/10 02:33:00;;;;;;;14.10;7.28;;;;;;;-1.28;91.08;96393.88;5033287;28;20034;-78
2020/12/10 02:35:28;;;;;;;14.98;6.20;;;;;;;-1.39;90.70;96384.94;5033546;28;20075;-78
2020/12/10 02:37:58;;;;;;;15.80;8.15;;;;;;;-1.40;91.03;96389.28;5016964;28;20041;-77
2020/12/10 02:40:26;;;;;;;15.98;7.10;;;;;;;-1.41;91.10;96386.91;5007401;28;20091;-77
2020/12/10 02:42:53;;;;;;;12.77;6.53;;;;;;;-1.45;90.77;96378.84;5035024;28;20464;-78
2020/12/10 02:45:19;;;;;;;16.83;8.25;;;;;;;-1.43;91.00;96381.22;5035954;28;20029;-77
2020/12/10 02:47:45;;;;;;;15.75;8.02;;;;;;;-1.45;90.90;96381.38;5035725;28;20111;-77
2020/12/10 02:50:12;;;;;;;14.05;7.20;;;;;;;-1.48;91.49;96371.53;5036026;28;20063;-77
2020/12/10 02:52:38;;;;;;;15.48;8.02;;;;;;;-1.50;91.45;96365.84;5036241;28;20036;-77
2020/12/10 02:55:03;;;;;;;14.38;7.93;;;;;;;-1.51;91.29;96362.50;5035486;28;20033;-77
2020/12/10 02:57:30;;;;;;;19.67;9.35;;;;;;;-1.46;91.47;96367.03;5032249;28;20622;-77
2020/12/10 02:59:56;;;;;;;17.30;7.80;;;;;;;-1.46;91.16;96369.59;5034359;28;20372;-78
2020/12/10 03:02:22;;;;;;;18.17;8.55;;;;;;;-1.48;91.87;96355.44;5035191;28;20045;-77
2020/12/10 03:04:48;;;;;;;18.30;9.32;;;;;;;-1.49;91.67;96357.22;5035461;28;20044;-77
2020/12/10 03:07:15;;;;;;;16.00;8.02;;;;;;;-1.48;91.95;96360.56;5053589;28;20431;-79
2020/12/10 03:09:42;;;;;;;15.07;7.35;;;;;;;-1.48;91.67;96353.69;5035138;28;20025;-78
2020/12/10 03:12:09;;;;;;;15.73;7.45;;;;;;;-1.47;91.48;96345.06;5035311;28;20434;-77
2020/12/10 03:14:34;;;;;;;15.82;7.88;;;;;;;-1.42;91.30;96342.72;5035548;28;20049;-78
2020/12/10 03:17:00;;;;;;;15.25;7.55;;;;;;;-1.42;91.18;96342.72;5035730;28;20033;-78
2020/12/10 03:19:26;;;;;;;17.20;8.00;;;;;;;-1.44;90.95;96341.31;5017557;28;20039;-77
2020/12/10 03:21:52;;;;;;;17.40;8.40;;;;;;;-1.43;91.08;96343.69;5018609;28;20063;-77
2020/12/10 03:24:18;;;;;;;15.45;8.38;;;;;;;-1.45;91.49;96340.53;5052282;28;20060;-77
2020/12/10 03:26:44;;;;;;;16.98;8.77;;;;;;;-1.48;91.48;96332.47;5035342;28;20074;-77
2020/12/10 03:29:10;;;;;;;16.77;7.88;;;;;;;-1.51;91.93;96328.50;5052234;28;20033;-77
2020/12/10 03:31:39;;;;;;;15.98;8.48;;;;;;;-1.36;91.33;96330.94;5034079;28;20108;-77
2020/12/10 03:34:05;;;;;;;15.18;7.20;;;;;;;-1.37;91.18;96319.97;5035135;28;20044;-78
2020/12/10 03:36:46;;;;;;;14.45;7.68;;;;;;;-1.40;91.54;96314.44;5034868;28;20047;-77
2020/12/10 03:39:12;;;;;;;15.77;7.70;;;;;;;-1.36;90.65;96316.41;5034584;28;20211;-77
2020/12/10 03:41:38;;;;;;;16.20;8.38;;;;;;;-1.47;91.27;96301.66;5034695;28;20025;-78
2020/12/10 03:44:04;;;;;;;14.40;7.85;;;;;;;-1.46;91.79;96303.22;5034770;28;20475;-78
2020/12/10 03:46:30;;;;;;;17.63;8.10;;;;;;;-1.45;91.81;96309.13;5052960;28;20029;-78
2020/12/10 03:48:57;;;;;;;16.83;8.05;;;;;;;-1.46;91.40;96303.22;5034539;28;20032;-77
2020/12/10 03:51:23;;;;;;;13.23;6.47;;;;;;;-1.45;90.96;96311.69;5034578;28;20095;-77
2020/12/10 03:53:49;;;;;;;17.00;7.63;;;;;;;-1.46;91.85;96304.97;5053014;28;20439;-77
2020/12/10 03:56:15;;;;;;;16.20;9.43;;;;;;;-1.46;92.25;96302.44;5035094;28;20391;-78
2020/12/10 03:58:41;;;;;;;21.23;8.48;;;;;;;-1.43;92.13;96302.06;5052607;28;20032;-78
2020/12/10 04:01:07;;;;;;;18.23;8.32;;;;;;;-1.43;91.14;96297.72;5034111;28;20476;-77
2020/12/10 04:03:33;;;;;;;21.02;8.25;;;;;;;-1.48;91.60;96294.97;5034033;28;20069;-77
2020/12/10 04:05:59;;;;;;;13.00;6.85;;;;;;;-1.45;91.75;96292.03;5034422;28;20033;-77
2020/12/10 04:08:24;;;;;;;14.63;7.75;;;;;;;-1.45;91.36;96294.59;5052247;28;20431;-77
2020/12/10 04:10:50;;;;;;;16.15;8.23;;;;;;;-1.47;91.71;96283.78;5033992;28;20033;-77
2020/12/10 04:13:16;;;;;;;14.75;7.00;;;;;;;-1.42;91.59;96286.56;5033988;28;20056;-77
2020/12/10 04:15:42;;;;;;;15.05;6.90;;;;;;;-1.43;90.78;96287.50;5034227;28;20057;-78
2020/12/10 04:18:08;;;;;;;14.73;7.47;;;;;;;-1.43;91.40;96281.63;5034291;28;20033;-78
2020/12/10 04:20:34;;;;;;;16.73;7.90;;;;;;;-1.42;91.38;96285.75;5051302;28;20090;-77
2020/12/10 04:23:00;;;;;;;18.52;9.43;;;;;;;-1.44;91.02;96283.41;5051597;28;20043;-77
2020/12/10 04:25:26;;;;;;;14.82;7.50;;;;;;;-1.49;91.34;96272.97;5034202;28;20144;-77
2020/12/10 04:27:52;;;;;;;12.20;6.65;;;;;;;-1.47;91.68;96276.13;5051574;28;20052;-77
2020/12/10 04:30:21;;;;;;;17.40;8.48;;;;;;;-1.51;91.10;96275.72;5033907;28;20025;-77
2020/12/10 04:32:47;;;;;;;15.63;7.63;;;;;;;-1.51;91.97;96277.47;5034251;28;20082;-77
2020/12/10 04:35:13;;;;;;;16.05;8.07;;;;;;;-1.47;91.88;96265.09;5016266;28;20116;-77
2020/12/10 04:37:41;;;;;;;13.88;6.60;;;;;;;-1.48;91.60;96271.22;5017493;28;20048;-77
2020/12/10 04:40:07;;;;;;;14.35;7.68;;;;;;;-1.52;91.40;96265.69;5016318;28;20562;-77
2020/12/10 04:42:34;;;;;;;15.63;7.57;;;;;;;-1.46;92.31;96269.25;5033549;28;20092;-77
2020/12/10 04:44:59;;;;;;;18.15;9.25;;;;;;;-1.47;92.20;96276.13;5001627;28;20128;-77
2020/12/10 04:47:28;;;;;;;15.88;7.75;;;;;;;-1.45;91.95;96269.06;5033785;28;20075;-78
2020/12/10 04:49:55;;;;;;;16.60;8.15;;;;;;;-1.48;91.40;96259.22;5032883;28;20076;-78
2020/12/10 04:52:22;;;;;;;16.17;8.35;;;;;;;-1.41;91.58;96267.69;5050842;28;20245;-77
2020/12/10 04:54:48;;;;;;;13.88;7.75;;;;;;;-1.44;91.38;96259.63;5033515;28;20036;-77
2020/12/10 04:57:16;;;;;;;16.77;7.40;;;;;;;-1.43;91.60;96262.00;5033520;28;20032;-77
2020/12/10 04:59:42;;;;;;;17.63;8.77;;;;;;;-1.45;91.52;96263.94;5033109;28;20076;-78
2020/12/10 05:02:12;;;;;;;12.85;6.68;;;;;;;-1.48;91.69;96253.34;5033067;28;20044;-77
2020/12/10 05:04:41;;;;;;;14.95;7.28;;;;;;;-1.46;91.91;96249.59;5033797;28;20076;-77
2020/12/10 05:07:07;;;;;;;15.00;7.50;;;;;;;-1.45;91.93;96248.63;5051012;28;20041;-78
2020/12/10 05:09:33;;;;;;;14.27;7.72;;;;;;;-1.44;91.80;96251.97;5050770;28;20033;-77
2020/12/10 05:11:59;;;;;;;16.60;8.20;;;;;;;-1.47;92.34;96250.59;5016098;28;20498;-77
2020/12/10 05:14:24;;;;;;;17.20;7.70;;;;;;;-1.47;92.31;96240.38;5032962;28;20056;-77
2020/12/10 05:17:11;;;;;;;15.07;6.97;;;;;;;-1.48;92.07;96249.00;5033335;28;20025;-77
2020/12/10 05:19:36;;;;;;;16.25;7.55;;;;;;;-1.49;92.30;96239.78;5016868;28;20025;-77
2020/12/10 05:22:05;;;;;;;16.90;7.95;;;;;;;-1.51;92.10;96239.16;5032178;28;20773;-77
2020/12/10 05:24:31;;;;;;;13.88;6.50;;;;;;;-1.48;92.27;96240.56;5033176;28;20644;-77
2020/12/10 05:27:18;;;;;;;12.93;6.70;;;;;;;-1.53;92.06;96236.03;5033216;28;20063;-78
2020/12/10 05:29:44;;;;;;;13.23;7.38;;;;;;;-1.52;91.90;96242.72;5029433;28;20044;-77
2020/12/10 05:32:28;;;;;;;13.55;6.93;;;;;;;-1.49;91.99;96251.75;5016163;28;20036;-77
2020/12/10 05:34:54;;;;;;;13.25;6.82;;;;;;;-1.51;91.98;96244.28;5051060;28;20422;-78
2020/12/10 05:37:30;;;;;;;12.90;7.20;;;;;;;-1.50;91.97;96240.75;5051047;28;20037;-77
2020/12/10 05:40:00;;;;;;;14.70;6.93;;;;;;;-1.51;92.07;96244.28;5049070;28;20024;-77
2020/12/10 05:42:36;;;;;;;12.43;6.78;;;;;;;-1.49;91.90;96241.53;5032319;28;20037;-77
2020/12/10 05:45:16;;;;;;;13.70;6.40;;;;;;;-1.45;91.87;96242.75;5049841;28;20114;-77
2020/12/10 05:47:53;;;;;;;14.48;7.22;;;;;;;-1.54;91.40;96231.91;5051019;28;20067;-77
2020/12/10 05:50:24;;;;;;;11.65;6.00;;;;;;;-1.49;91.78;96244.09;5050575;28;20033;-77
2020/12/10 05:53:10;;;;;;;12.63;7.22;;;;;;;-1.47;91.60;96244.69;5032630;28;20134;-77
2020/12/10 05:55:40;;;;;;;16.20;7.43;;;;;;;-1.48;91.69;96241.34;5018509;28;20036;-77
2020/12/10 05:58:06;;;;;;;8.45;4.30;;;;;;;-1.49;90.28;96246.63;5036378;28;20073;-77
2020/12/10 06:00:33;;;;;;;4.38;2.53;;;;;;;-1.56;89.40;96241.50;5035993;28;20036;-78
2020/12/10 06:03:00;;;;;;;5.90;2.70;;;;;;;-1.51;89.28;96245.09;5035793;28;20191;-77
2020/12/10 06:05:27;;;;;;;9.57;4.22;;;;;;;-1.42;88.59;96243.16;5036711;28;20108;-78
2020/12/10 06:08:03;;;;;;;8.93;4.22;;;;;;;-1.33;89.36;96248.88;5036634;28;20051;-77
2020/12/10 06:10:34;;;;;;;7.30;3.88;;;;;;;-1.39;89.36;96252.97;5036589;28;20060;-77
2020/12/10 06:12:59;;;;;;;7.95;4.45;;;;;;;-1.41;89.94;96252.38;5036297;28;20036;-77
2020/12/10 06:15:26;;;;;;;8.30;3.83;;;;;;;-1.39;90.04;96252.97;5036486;28;20551;-77
2020/12/10 06:18:13;;;;;;;8.63;4.30;;;;;;;-1.40;90.26;96251.41;5036382;28;20039;-77
2020/12/10 06:20:43;;;;;;;6.45;3.22;;;;;;;-1.41;90.02;96254.91;5036356;28;20352;-77
2020/12/10 06:23:34;;;;;;;8.07;4.50;;;;;;;-1.42;90.15;96248.25;5016053;28;20045;-77
2020/12/10 06:26:22;;;;;;;8.75;3.78;;;;;;;-1.42;90.83;96240.59;5033858;28;20383;-77
2020/12/10 06:28:49;;;;;;;7.68;3.45;;;;;;;-1.43;90.63;96241.56;5037273;28;20037;-77
2020/12/10 06:31:15;;;;;;;8.02;4.32;;;;;;;-1.44;90.62;96247.66;5038430;28;20032;-77
2020/12/10 06:33:45;;;;;;;7.75;4.60;;;;;;;-1.45;90.73;96256.28;5036497;28;20044;-78
2020/12/10 06:36:25;;;;;;;8.02;4.07;;;;;;;-1.46;91.19;96256.47;5036205;28;20541;-78
2020/12/10 06:38:53;;;;;;;7.88;4.88;;;;;;;-1.50;90.77;96256.06;5034860;28;20031;-77
2020/12/10 06:41:19;;;;;;;11.43;5.38;;;;;;;-1.47;90.88;96258.25;5034686;28;20059;-76
2020/12/10 06:43:48;;;;;;;6.80;4.05;;;;;;;-1.47;91.18;96268.47;5035115;28;20112;-77
2020/12/10 06:46:14;;;;;;;9.52;6.05;;;;;;;-1.46;90.75;96262.38;5036485;28;20087;-77
2020/12/10 06:48:48;;;;;;;17.73;10.35;;;;;;;-1.45;90.64;96252.97;5036400;28;20040;-78
2020/12/10 06:51:18;;;;;;;20.45;11.77;;;;;;;-1.43;90.28;96262.00;5035988;28;20060;-78
2020/12/10 06:53:59;;;;;;;17.40;9.95;;;;;;;-1.43;91.00;96266.31;5053870;28;20037;-77
2020/12/10 06:56:25;;;;;;;11.07;5.75;;;;;;;-1.45;90.67;96266.50;5036507;28;20033;-77
2020/12/10 06:58:54;;;;;;;12.75;6.65;;;;;;;-1.42;90.26;96268.69;5036581;28;20029;-77
2020/12/10 07:01:31;;;;;;;11.90;5.53;;;;;;;-1.36;90.01;96274.78;5036497;28;20032;-77
2020/12/10 07:04:13;;;;;;;10.93;5.82;;;;;;;-1.41;89.96;96270.25;5035946;28;20380;-77
2020/12/10 07:06:39;;;;;;;6.43;3.67;;;;;;;-1.34;88.42;96271.06;5053006;28;20033;-78
2020/12/10 07:09:07;;;;;;;4.60;2.45;;;;;;;-1.29;85.80;96277.38;5023278;28;20052;-78
2020/12/10 07:11:38;;;;;;;5.53;2.78;;;;;;;-1.17;85.91;96275.81;5035134;28;20063;-77
2020/12/10 07:14:21;;;;;;;4.82;2.15;;;;;;;-1.23;86.27;96271.50;5035315;28;20565;-77
2020/12/10 07:16:49;;;;;;;6.15;3.13;;;;;;;-1.24;85.32;96270.69;5051868;28;20057;-77
2020/12/10 07:19:15;;;;;;;6.43;3.20;;;;;;;-1.25;85.65;96268.31;5014498;28;20032;-78
2020/12/10 07:21:41;;;;;;;7.78;3.65;;;;;;;-1.26;86.44;96266.78;5017887;28;20515;-77
2020/12/10 07:24:07;;;;;;;6.50;3.50;;;;;;;-1.25;85.19;96270.88;5018549;28;20045;-77
2020/12/10 07:26:33;;;;;;;5.53;2.92;;;;;;;-1.30;86.97;96270.66;5035706;28;20107;-77
2020/12/10 07:28:58;;;;;;;6.10;3.10;;;;;;;-1.33;86.13;96272.63;5035197;28;20025;-77
2020/12/10 07:31:24;;;;;;;4.38;2.55;;;;;;;-1.34;87.26;96278.72;5052902;28;20029;-78
2020/12/10 07:33:57;;;;;;;6.25;3.72;;;;;;;-1.34;86.94;96275.38;5019107;28;20037;-77
2020/12/10 07:36:23;;;;;;;7.03;4.00;;;;;;;-1.28;86.54;96289.16;5019106;28;20041;-78
2020/12/10 07:38:49;;;;;;;7.95;4.18;;;;;;;-1.30;87.31;96286.00;5035738;28;20524;-78
2020/12/10 07:41:15;;;;;;;5.82;3.63;;;;;;;-1.35;87.63;96282.25;5018791;28;20108;-77
2020/12/10 07:43:59;;;;;;;5.82;3.78;;;;;;;-1.32;88.21;96283.63;5034747;28;20047;-78
2020/12/10 07:46:34;;;;;;;4.82;2.95;;;;;;;-1.36;86.31;96277.34;5053739;28;20083;-78
2020/12/10 07:49:00;;;;;;;5.03;3.28;;;;;;;-1.38;86.75;96281.84;5035082;28;20029;-78
2020/12/10 07:51:26;;;;;;;4.97;2.97;;;;;;;-1.33;85.20;96285.41;5019038;28;20047;-78
2020/12/10 07:54:01;;;;;;;5.43;2.97;;;;;;;-1.35;86.74;96284.81;5017820;28;20136;-78
2020/12/10 07:56:29;;;;;;;6.07;3.25;;;;;;;-1.33;86.92;96274.41;5035466;28;20025;-78
2020/12/10 07:59:21;;;;;;;5.18;2.70;;;;;;;-1.22;84.63;96276.38;5018642;28;20067;-77
2020/12/10 08:01:51;;;;;;;6.65;3.35;;;;;;;-1.26;85.96;96271.88;5029794;28;20059;-78
2020/12/10 08:04:19;;;;;;;6.20;3.03;;;;;;;-1.29;86.99;96269.69;5048852;28;20051;-77
2020/12/10 08:06:46;;;;;;;4.75;2.65;;;;;;;-1.35;86.95;96276.38;5018950;28;20116;-78
2020/12/10 08:09:13;;;;;;;6.35;3.25;;;;;;;-1.32;86.53;96274.22;5032129;28;20779;-77
2020/12/10 08:11:53;;;;;;;6.57;3.58;;;;;;;-1.36;87.04;96262.00;5034447;28;20046;-77
2020/12/10 08:14:31;;;;;;;6.68;3.47;;;;;;;-1.35;86.22;96266.16;5018352;28;20028;-77
2020/12/10 08:16:59;;;;;;;7.07;3.75;;;;;;;-1.32;87.23;96268.31;5034902;28;20025;-78
2020/12/10 08:19:34;;;;;;;6.75;3.80;;;;;;;-1.33;86.99;96267.53;5017527;28;20079;-78
2020/12/10 08:22:00;;;;;;;9.55;4.75;;;;;;;-1.34;86.15;96265.97;5048947;28;20021;-77
2020/12/10 08:24:43;;;;;;;10.45;4.90;;;;;;;-1.37;85.86;96271.44;5008219;28;20134;-77
2020/12/10 08:27:12;;;;;;;5.88;3.50;;;;;;;-1.50;85.24;96258.63;5052899;28;20039;-76
2020/12/10 08:29:39;;;;;;;7.72;4.00;;;;;;;-1.47;85.92;96268.47;5052816;28;20028;-77
2020/12/10 08:32:10;;;;;;;6.32;3.22;;;;;;;-1.48;86.45;96266.09;5048955;28;20079;-77
2020/12/10 08:34:36;;;;;;;4.20;2.80;;;;;;;-1.43;85.42;96261.22;5038795;28;20064;-80
2020/12/10 08:37:10;;;;;;;5.05;2.90;;;;;;;-1.34;84.17;96260.06;5024646;28;20056;-77
2020/12/10 08:39:39;;;;;;;4.85;2.42;;;;;;;-1.32;84.94;96266.56;5033926;28;20075;-78
2020/12/10 08:42:05;;;;;;;4.30;2.55;;;;;;;-1.29;84.92;96267.16;5016976;28;20064;-78
2020/12/10 08:44:49;;;;;;;6.03;2.88;;;;;;;-1.33;86.29;96264.97;5033789;28;20020;-78
2020/12/10 08:47:26;;;;;;;6.65;3.75;;;;;;;-1.35;85.97;96261.06;5033824;28;20024;-77
2020/12/10 08:50:05;;;;;;;9.38;5.30;;;;;;;-1.32;86.59;96255.53;5031391;28;20103;-77
2020/12/10 08:52:31;;;;;;;7.60;3.90;;;;;;;-1.34;86.06;96255.75;5038944;28;20029;-78
2020/12/10 08:54:57;;;;;;;6.15;3.47;;;;;;;-1.29;86.25;96256.94;5015757;28;20033;-77
2020/12/10 08:57:23;;;;;;;7.70;4.32;;;;;;;-1.34;85.56;96265.16;5031692;28;20037;-77
2020/12/10 08:59:49;;;;;;;7.88;3.95;;;;;;;-1.25;84.46;96266.59;5035552;28;20044;-77
2020/12/10 09:02:15;;;;;;;9.00;4.15;;;;;;;-1.31;85.59;96267.34;5011920;28;20033;-78
2020/12/10 09:04:40;;;;;;;5.13;2.83;;;;;;;-1.17;82.12;96268.16;5038799;28;20032;-78
2020/12/10 09:07:06;;;;;;;4.40;2.38;;;;;;;-1.19;83.97;96270.91;5032262;28;20088;-78
2020/12/10 09:09:32;;;;;;;4.88;2.55;;;;;;;-1.21;84.18;96277.19;5032160;28;20029;-77
2020/12/10 09:11:58;;;;;;;6.97;3.38;;;;;;;-1.27;84.68;96278.72;5031858;28;20040;-77
2020/12/10 09:14:24;;;;;;;7.43;4.35;;;;;;;-1.31;85.05;96269.88;5031621;28;20056;-77
2020/12/10 09:16:50;;;;;;;5.15;3.00;;;;;;;-1.32;85.84;96275.97;5015359;28;20361;-77
2020/12/10 09:19:16;;;;;;;7.28;3.50;;;;;;;-1.27;85.90;96278.72;5050334;28;20059;-78
2020/12/10 09:21:42;;;;;;;6.72;3.08;;;;;;;-1.09;83.70;96282.53;5016256;28;20037;-77
2020/12/10 09:24:08;;;;;;;4.57;2.90;;;;;;;-1.14;82.91;96275.44;5031310;28;20083;-77
2020/12/10 09:26:34;;;;;;;4.40;2.65;;;;;;;-1.18;84.51;96287.03;5033129;28;20082;-78
2020/12/10 09:29:01;;;;;;;5.78;3.22;;;;;;;-1.14;84.75;96295.88;5050769;28;20400;-77
2020/12/10 09:31:27;;;;;;;6.10;3.40;;;;;;;-1.06;84.67;96292.34;5019544;28;20045;-78
2020/12/10 09:33:52;;;;;;;6.03;2.97;;;;;;;-1.03;83.18;96297.09;5020217;28;20049;-78
2020/12/10 09:36:18;;;;;;;6.03;2.88;;;;;;;-1.09;83.75;96290.97;5033867;28;20136;-78
2020/12/10 09:38:44;;;;;;;6.68;3.42;;;;;;;-1.10;84.21;96289.41;5040341;28;20148;-77
2020/12/10 09:41:12;;;;;;;6.35;2.80;;;;;;;-1.02;84.52;96293.56;5047070;28;20043;-79
2020/12/10 09:43:38;;;;;;;6.65;3.03;;;;;;;-0.91;84.23;96294.75;5057315;28;20025;-78
2020/12/10 09:46:11;;;;;;;4.88;2.78;;;;;;;-0.86;82.90;96297.53;5051296;28;20037;-78
2020/12/10 09:48:37;;;;;;;5.00;2.75;;;;;;;-0.85;83.15;96294.00;5035157;28;20109;-79
2020/12/10 09:51:04;;;;;;;4.13;2.33;;;;;;;-0.72;81.33;96294.03;5016654;28;20041;-78
2020/12/10 09:53:40;;;;;;;4.60;2.42;;;;;;;-0.79;82.42;96298.31;5034000;28;20485;-78
2020/12/10 09:58:44;;;;;;;4.97;2.72;;;;;;;-0.90;82.74;96291.25;5047153;28;20151;-78
2020/12/10 10:01:12;;;;;;;3.72;2.60;;;;;;;-0.78;83.35;96300.69;5056033;28;20107;-78
2020/12/10 10:03:39;;;;;;;4.50;2.63;;;;;;;-0.88;84.84;96289.28;5028556;28;20053;-78
2020/12/10 10:06:09;;;;;;;4.22;1.95;;;;;;;-0.95;84.07;96294.38;5018052;28;20091;-78
2020/12/10 10:08:35;;;;;;;4.78;2.45;;;;;;;-0.95;82.38;96286.69;5037527;28;20029;-79
2020/12/10 10:11:02;;;;;;;4.35;2.25;;;;;;;-0.84;82.51;96286.16;5037363;28;20090;-78
2020/12/10 10:13:28;;;;;;;4.45;2.63;;;;;;;-0.83;83.40;96292.03;5021711;28;20478;-78
2020/12/10 10:15:54;;;;;;;5.07;2.63;;;;;;;-0.82;84.41;96293.63;5017609;28;20115;-78
2020/12/10 10:18:22;;;;;;;4.95;2.88;;;;;;;-0.79;83.82;96290.66;5036362;28;20041;-78
2020/12/10 10:20:48;;;;;;;5.20;2.63;;;;;;;-0.76;83.37;96290.28;5038162;28;20033;-78
2020/12/10 10:23:14;;;;;;;4.45;2.55;;;;;;;-0.67;82.77;96284.00;5054902;28;20055;-78
2020/12/10 10:25:39;;;;;;;5.68;2.90;;;;;;;-0.76;82.26;96267.28;5038616;28;20095;-78
2020/12/10 10:28:06;;;;;;;4.68;2.60;;;;;;;-0.78;84.33;96290.47;5039846;28;20039;-78
2020/12/10 10:30:32;;;;;;;4.57;3.13;;;;;;;-0.79;83.89;96285.53;5051580;28;20095;-78
2020/12/10 10:32:58;;;;;;;4.07;2.55;;;;;;;-0.82;84.23;96283.41;5035447;28;20525;-78
2020/12/10 10:35:24;;;;;;;5.85;3.67;;;;;;;-0.85;84.80;96276.88;5017254;28;20083;-77
2020/12/10 10:37:50;;;;;;;5.40;3.00;;;;;;;-0.84;83.86;96275.13;5035310;28;20099;-78
2020/12/10 10:40:18;;;;;;;5.35;3.22;;;;;;;-0.75;83.65;96268.84;5036192;28;20071;-78
2020/12/10 10:42:45;;;;;;;5.07;2.60;;;;;;;-0.80;83.58;96255.88;5038891;28;20062;-78
2020/12/10 10:45:11;;;;;;;5.28;2.65;;;;;;;-0.86;82.07;96265.09;5040924;28;20036;-78
2020/12/10 10:47:37;;;;;;;6.13;3.90;;;;;;;-0.94;83.08;96257.63;5055526;28;20060;-78
2020/12/10 10:50:04;;;;;;;6.78;3.33;;;;;;;-0.90;83.74;96258.78;5027204;28;20423;-78
2020/12/10 10:52:30;;;;;;;4.20;2.60;;;;;;;-0.88;83.62;96264.50;5031981;28;20056;-78
2020/12/10 10:54:55;;;;;;;3.95;2.55;;;;;;;-0.75;81.84;96263.75;5020017;28;20064;-78
2020/12/10 10:57:21;;;;;;;6.25;3.33;;;;;;;-0.77;83.48;96258.81;5050671;28;20393;-78
2020/12/10 10:59:47;;;;;;;4.00;2.72;;;;;;;-0.70;83.39;96261.38;5019692;28;20480;-78
2020/12/10 11:02:13;;;;;;;5.90;3.00;;;;;;;-0.73;83.54;96256.66;5053185;28;20040;-79
2020/12/10 11:04:39;;;;;;;6.88;4.40;;;;;;;-0.70;84.82;96265.69;5052144;28;20044;-78
2020/12/10 11:07:05;;;;;;;5.10;3.42;;;;;;;-0.69;84.29;96262.16;5041148;28;20044;-78
2020/12/10 11:09:32;;;;;;;5.55;3.17;;;;;;;-0.68;83.95;96261.19;5024568;28;20028;-78
2020/12/10 11:11:57;;;;;;;5.50;3.40;;;;;;;-0.78;82.98;96254.69;5044041;28;20510;-77
2020/12/10 11:14:23;;;;;;;5.20;3.25;;;;;;;-0.71;84.10;96256.47;5023794;28;20033;-78
2020/12/10 11:16:53;;;;;;;6.90;3.60;;;;;;;-0.71;84.23;96259.81;5002268;28;20025;-78
2020/12/10 11:19:19;;;;;;;5.65;3.53;;;;;;;-0.58;84.16;96253.94;5035559;28;20032;-78
2020/12/10 11:21:45;;;;;;;6.75;3.72;;;;;;;-0.53;82.48;96249.00;5049919;28;20064;-78
2020/12/10 11:24:11;;;;;;;6.28;3.83;;;;;;;-0.57;81.97;96246.06;5034846;28;20072;-78
2020/12/10 11:26:36;;;;;;;7.00;3.67;;;;;;;-0.51;81.27;96244.47;5017183;28;20112;-78
2020/12/10 11:29:02;;;;;;;9.05;5.30;;;;;;;-0.59;82.52;96239.56;5034531;28;20041;-78
2020/12/10 11:31:28;;;;;;;8.38;5.20;;;;;;;-0.64;83.64;96237.59;5034205;28;20029;-78
2020/12/10 11:33:54;;;;;;;9.75;5.07;;;;;;;-0.74;82.79;96229.53;5033554;28;20625;-78
2020/12/10 11:36:20;;;;;;;8.32;4.80;;;;;;;-0.77;82.25;96232.50;5034240;28;20036;-78